Time;durP1;ratioP1;P1;durP2;ratioP2;P2;SDS_P1;SDS_P2;PMS_P1;PMS_P2;Temp;Humidity;BMP_temperature;BMP_pressure;BME280_temperature;BME280_humidity;BME280_pressure;Samples;Min_cycle;Max_cycle;Signal;HPM_P1;HPM_P2
2022/10/23 00:00:16;;;;;;;;;;;;;;;28.92;29.23;100869.63;4979862;28;1205;-29
2022/10/23 00:02:41;;;;;;;;;;;;;;;28.28;30.43;100863.88;4980144;28;1145;-29
2022/10/23 00:05:07;;;;;;;;;;;;;;;28.69;29.52;100863.38;4979788;28;1940;-29
2022/10/23 00:07:32;;;;;;;;;;;;;;;28.88;29.10;100871.06;4980388;28;1165;-28
2022/10/23 00:09:57;;;;;;;;;;;;;;;28.53;30.45;100863.59;4979525;28;1173;-29
2022/10/23 00:12:23;;;;;;;;;;;;;;;28.65;29.99;100864.78;4994078;28;1181;-30
2022/10/23 00:14:48;;;;;;;;;;;;;;;28.92;29.31;100864.22;4980051;28;1212;-29
2022/10/23 00:17:13;;;;;;;;;;;;;;;28.33;30.76;100866.88;4979988;28;1157;-29
2022/10/23 00:19:38;;;;;;;;;;;;;;;28.63;30.00;100860.59;4979842;28;1190;-29
2022/10/23 00:22:04;;;;;;;;;;;;;;;28.80;29.14;100863.88;4979315;28;1149;-28
2022/10/23 00:24:29;;;;;;;;;;;;;;;28.31;30.76;100861.63;4979995;28;1154;-28
2022/10/23 00:26:54;;;;;;;;;;;;;;;28.62;30.22;100865.16;4979817;28;1993;-29
2022/10/23 00:29:20;;;;;;;;;;;;;;;28.69;29.61;100859.81;4979591;28;1071;-29
2022/10/23 00:31:45;;;;;;;;;;;;;;;28.31;30.81;100856.22;4979097;28;1158;-29
2022/10/23 00:34:10;;;;;;;;;;;;;;;28.59;30.46;100862.84;4979141;28;1130;-29
2022/10/23 00:36:36;;;;;;;;;;;;;;;28.74;29.42;100849.25;4979956;28;1138;-29
2022/10/23 00:39:01;;;;;;;;;;;;;;;28.39;30.54;100849.06;4979662;28;1169;-29
2022/10/23 00:41:27;;;;;;;;;;;;;;;28.63;30.34;100850.56;4979287;28;1244;-29
2022/10/23 00:44:09;;;;;;;;;;;;;;;28.77;29.39;100854.28;4979358;28;1244;-28
2022/10/23 00:46:35;;;;;;;;;;;;;;;28.43;30.66;100844.94;4962093;28;1898;-28
2022/10/23 00:49:00;;;;;;;;;;;;;;;28.62;30.52;100848.91;4979308;28;1126;-28
2022/10/23 00:51:26;;;;;;;;;;;;;;;28.81;29.43;100841.22;4978890;28;1224;-28
2022/10/23 00:53:51;;;;;;;;;;;;;;;28.36;30.61;100839.47;4962276;28;1209;-28
2022/10/23 00:56:17;;;;;;;;;;;;;;;28.56;30.50;100834.25;4961724;28;1209;-28
2022/10/23 00:58:42;;;;;;;;;;;;;;;28.77;29.45;100837.19;4979036;28;947;-28
2022/10/23 01:01:14;;;;;;;;;;;;;;;28.47;30.46;100830.00;4978467;28;1166;-28
2022/10/23 01:03:40;;;;;;;;;;;;;;;28.56;30.44;100828.03;4979028;28;1177;-28
2022/10/23 01:06:13;;;;;;;;;;;;;;;28.76;29.42;100814.69;4979609;28;1965;-29
2022/10/23 01:08:59;;;;;;;;;;;;;;;28.38;30.61;100809.50;4978779;28;1224;-29
2022/10/23 01:11:38;;;;;;;;;;;;;;;28.59;30.53;100812.22;4970279;28;924;-30
2022/10/23 01:14:23;;;;;;;;;;;;;;;28.70;29.58;100810.06;4964546;28;1177;-29
2022/10/23 01:17:08;;;;;;;;;;;;;;;28.29;30.75;100812.31;4971364;28;1177;-29
2022/10/23 01:19:34;;;;;;;;;;;;;;;28.54;30.36;100812.00;4961285;28;1107;-29
2022/10/23 01:22:01;;;;;;;;;;;;;;;28.60;29.73;100805.81;4978205;28;1201;-28
2022/10/23 01:24:41;;;;;;;;;;;;;;;28.38;30.67;100815.75;4961464;28;1189;-28
2022/10/23 01:27:13;;;;;;;;;;;;;;;28.68;30.04;100812.09;4961584;28;1126;-29
2022/10/23 01:29:41;;;;;;;;;;;;;;;28.84;29.45;100816.44;4978699;28;1236;-29
2022/10/23 01:32:14;;;;;;;;;;;;;;;28.33;30.57;100816.31;4978187;28;1212;-28
2022/10/23 01:34:39;;;;;;;;;;;;;;;28.59;30.11;100820.34;4960606;28;1316;-29
2022/10/23 01:37:04;;;;;;;;;;;;;;;28.63;29.59;100804.56;4978572;28;1126;-29
2022/10/23 01:39:31;;;;;;;;;;;;;;;28.38;30.39;100799.50;4961307;28;1174;-29
2022/10/23 01:41:58;;;;;;;;;;;;;;;28.49;30.50;100803.59;4978248;28;1193;-29
2022/10/23 01:44:28;;;;;;;;;;;;;;;28.80;29.26;100794.34;4960739;28;1138;-29
2022/10/23 01:46:53;;;;;;;;;;;;;;;28.39;30.22;100800.34;4960514;28;1970;-29
2022/10/23 01:49:19;;;;;;;;;;;;;;;28.39;30.37;100787.69;4960882;28;1224;-29
2022/10/23 01:51:45;;;;;;;;;;;;;;;28.95;29.54;100794.28;4960713;28;1174;-29
2022/10/23 01:54:11;;;;;;;;;;;;;;;29.26;28.60;100791.41;4960987;28;1213;-29
2022/10/23 01:56:36;;;;;;;;;;;;;;;29.01;29.44;100799.97;4961184;28;1264;-29
2022/10/23 01:59:03;;;;;;;;;;;;;;;29.37;28.89;100800.88;4978051;28;856;-29
2022/10/23 02:01:28;;;;;;;;;;;;;;;29.49;28.18;100807.44;4960777;28;1138;-29
2022/10/23 02:03:53;;;;;;;;;;;;;;;29.36;28.73;100804.63;4977729;28;1153;-28
2022/10/23 02:06:19;;;;;;;;;;;;;;;29.35;28.61;100803.78;4960313;28;1985;-28
2022/10/23 02:08:44;;;;;;;;;;;;;;;28.93;29.32;100799.03;4978126;28;1198;-29
2022/10/23 02:11:10;;;;;;;;;;;;;;;28.66;30.10;100803.38;4969033;28;1054;-29
2022/10/23 02:13:42;;;;;;;;;;;;;;;28.83;29.54;100799.34;4967651;28;1221;-28
2022/10/23 02:16:07;;;;;;;;;;;;;;;28.75;29.80;100806.75;4960228;28;1003;-28
2022/10/23 02:18:35;;;;;;;;;;;;;;;28.16;30.80;100802.13;4977763;28;1300;-29
2022/10/23 02:21:06;;;;;;;;;;;;;;;28.70;29.96;100805.50;4977862;28;1182;-29
2022/10/23 02:23:33;;;;;;;;;;;;;;;28.67;29.79;100805.88;4977709;28;1023;-28
2022/10/23 02:25:59;;;;;;;;;;;;;;;28.11;30.56;100807.28;4959716;28;1914;-29
2022/10/23 02:28:27;;;;;;;;;;;;;;;28.45;30.22;100808.56;4960478;28;1170;-28
2022/10/23 02:30:52;;;;;;;;;;;;;;;28.66;29.79;100804.19;4977432;28;1208;-28
2022/10/23 02:33:17;;;;;;;;;;;;;;;28.39;30.33;100797.66;4960456;28;1149;-29
2022/10/23 02:35:43;;;;;;;;;;;;;;;28.64;29.93;100787.31;4976890;28;884;-29
2022/10/23 02:38:27;;;;;;;;;;;;;;;28.90;29.30;100806.69;4977170;28;1161;-29
2022/10/23 02:40:52;;;;;;;;;;;;;;;28.22;30.66;100796.00;4977565;28;1169;-29
2022/10/23 02:43:23;;;;;;;;;;;;;;;28.57;30.00;100798.06;4977816;28;1110;-29
2022/10/23 02:45:50;;;;;;;;;;;;;;;28.88;29.21;100808.78;4959494;28;1910;-29
2022/10/23 02:48:19;;;;;;;;;;;;;;;28.29;30.31;100814.16;4960007;28;1130;-28
2022/10/23 02:50:44;;;;;;;;;;;;;;;28.84;29.60;100813.75;4976167;28;1157;-28
2022/10/23 02:53:17;;;;;;;;;;;;;;;28.93;29.34;100809.88;4964781;28;1216;-29
2022/10/23 02:55:45;;;;;;;;;;;;;;;28.30;30.61;100800.44;4962769;28;2372;-29
2022/10/23 02:58:26;;;;;;;;;;;;;;;28.47;30.10;100811.91;4982752;28;1976;-31
2022/10/23 03:00:53;;;;;;;;;;;;;;;28.53;29.82;100828.41;4962911;28;1899;-31
2022/10/23 03:03:26;;;;;;;;;;;;;;;28.41;29.70;100818.06;4975743;28;1893;-30
2022/10/23 03:05:51;;;;;;;;;;;;;;;28.50;29.92;100821.50;4957913;28;1977;-30
2022/10/23 03:08:17;;;;;;;;;;;;;;;28.37;29.72;100814.09;4977928;28;2043;-30
2022/10/23 03:10:42;;;;;;;;;;;;;;;28.50;29.51;100816.09;4975027;28;1884;-30
2022/10/23 03:13:08;;;;;;;;;;;;;;;28.56;29.56;100811.78;4976295;28;1256;-30
2022/10/23 03:15:33;;;;;;;;;;;;;;;28.31;29.68;100807.50;4976429;28;1202;-30
2022/10/23 03:17:59;;;;;;;;;;;;;;;28.07;30.00;100809.53;4976457;28;1170;-30
2022/10/23 03:20:24;;;;;;;;;;;;;;;28.54;29.45;100814.69;4976603;28;1106;-31
2022/10/23 03:22:49;;;;;;;;;;;;;;;28.68;29.21;100809.41;4977118;28;1158;-28
2022/10/23 03:25:14;;;;;;;;;;;;;;;29.00;28.62;100811.81;4980295;28;1911;-28
2022/10/23 03:27:40;;;;;;;;;;;;;;;29.44;27.63;100827.00;4980040;28;1288;-29
2022/10/23 03:30:05;;;;;;;;;;;;;;;28.43;29.20;100834.09;4980214;28;1242;-28
2022/10/23 03:32:31;;;;;;;;;;;;;;;28.36;29.64;100848.41;4964225;28;1210;-29
2022/10/23 03:34:56;;;;;;;;;;;;;;;27.83;30.22;100846.63;4980525;28;1213;-28
2022/10/23 03:37:21;;;;;;;;;;;;;;;27.93;29.92;100854.47;4979623;28;1237;-28
2022/10/23 03:39:47;;;;;;;;;;;;;;;28.42;29.39;100854.94;4980791;28;1795;-28
2022/10/23 03:42:12;;;;;;;;;;;;;;;28.82;28.70;100861.81;4979890;28;1233;-28
2022/10/23 03:44:37;;;;;;;;;;;;;;;29.27;27.89;100853.53;4980328;28;1169;-29
2022/10/23 03:47:02;;;;;;;;;;;;;;;28.85;26.50;100847.91;4979866;28;1965;-30
2022/10/23 03:49:28;;;;;;;;;;;;;;;27.34;24.29;100832.53;4966397;28;1134;-31
2022/10/23 03:51:53;;;;;;;;;;;;;;;28.22;26.28;100833.84;4960205;28;1229;-31
2022/10/23 03:54:19;;;;;;;;;;;;;;;28.79;25.55;100835.13;4963928;28;1225;-31
2022/10/23 03:56:45;;;;;;;;;;;;;;;28.30;25.22;100827.50;4979387;28;1161;-31
2022/10/23 03:59:10;;;;;;;;;;;;;;;27.68;24.75;100827.69;4985209;28;1086;-33
2022/10/23 04:01:35;;;;;;;;;;;;;;;27.32;24.66;100829.22;4979885;28;1165;-31
2022/10/23 04:04:00;;;;;;;;;;;;;;;27.15;24.36;100836.59;4979833;28;1177;-31
2022/10/23 04:06:26;;;;;;;;;;;;;;;27.07;24.18;100831.25;4978787;28;1898;-29
2022/10/23 04:08:51;;;;;;;;;;;;;;;27.07;23.84;100825.88;4979375;28;1867;-29
2022/10/23 04:11:16;;;;;;;;;;;;;;;27.05;23.74;100823.34;4986447;28;1142;-29
2022/10/23 04:13:42;;;;;;;;;;;;;;;27.10;23.90;100826.34;4985603;28;1236;-30
2022/10/23 04:16:07;;;;;;;;;;;;;;;26.84;24.14;100830.19;4979030;28;1229;-29
2022/10/23 04:18:32;;;;;;;;;;;;;;;27.11;24.19;100835.28;4979387;28;1177;-29
2022/10/23 04:20:58;;;;;;;;;;;;;;;26.98;24.54;100839.41;4979422;28;1228;-29
2022/10/23 04:23:23;;;;;;;;;;;;;;;26.85;25.26;100839.16;4985946;28;1180;-29
2022/10/23 04:25:48;;;;;;;;;;;;;;;26.75;25.09;100842.94;4983383;28;1891;-29
2022/10/23 04:28:13;;;;;;;;;;;;;;;26.61;25.36;100846.41;4979314;28;1212;-29
2022/10/23 04:30:40;;;;;;;;;;;;;;;26.45;25.42;100856.25;4979479;28;1204;-29
2022/10/23 04:33:05;;;;;;;;;;;;;;;26.36;25.85;100851.91;4979103;28;1122;-29
2022/10/23 04:35:31;;;;;;;;;;;;;;;26.34;25.86;100845.84;4977720;28;1176;-31
2022/10/23 04:37:56;;;;;;;;;;;;;;;26.31;25.86;100860.47;4979229;28;1204;-29
2022/10/23 04:40:21;;;;;;;;;;;;;;;26.34;25.44;100851.25;4973464;28;2403;-29
2022/10/23 04:42:46;;;;;;;;;;;;;;;26.25;25.61;100853.09;4978832;28;1241;-29
2022/10/23 04:45:12;;;;;;;;;;;;;;;26.22;25.68;100859.69;4979112;28;1978;-29
2022/10/23 04:47:37;;;;;;;;;;;;;;;26.14;25.94;100868.63;4982559;28;1146;-29
2022/10/23 04:50:02;;;;;;;;;;;;;;;26.01;26.40;100869.16;4978786;28;1137;-29
2022/10/23 04:52:28;;;;;;;;;;;;;;;25.89;26.44;100863.28;4979147;28;1145;-30
2022/10/23 04:54:53;;;;;;;;;;;;;;;26.09;26.41;100859.38;4978532;28;1118;-29
2022/10/23 04:57:18;;;;;;;;;;;;;;;26.62;25.63;100859.72;4978639;28;1149;-30
2022/10/23 04:59:43;;;;;;;;;;;;;;;26.34;25.33;100862.84;4983264;28;1134;-30
2022/10/23 05:02:09;;;;;;;;;;;;;;;26.07;25.17;100853.31;4978892;28;1193;-31
2022/10/23 05:04:34;;;;;;;;;;;;;;;26.77;25.41;100862.50;4979068;28;1181;-31
2022/10/23 05:06:59;;;;;;;;;;;;;;;26.21;24.77;100874.16;4979031;28;1903;-30
2022/10/23 05:09:25;;;;;;;;;;;;;;;25.93;25.02;100874.59;4970629;28;2379;-30
2022/10/23 05:11:50;;;;;;;;;;;;;;;25.73;25.42;100879.50;4967388;28;1359;-31
2022/10/23 05:14:15;;;;;;;;;;;;;;;25.63;25.43;100877.84;4972397;28;1114;-29
2022/10/23 05:16:54;;;;;;;;;;;;;;;26.35;25.28;100864.53;4978545;28;1130;-31
2022/10/23 05:19:21;;;;;;;;;;;;;;;26.60;25.43;100872.53;4978461;28;1184;-31
2022/10/23 05:21:46;;;;;;;;;;;;;;;26.53;25.72;100882.31;4961001;28;1194;-31
2022/10/23 05:24:11;;;;;;;;;;;;;;;26.59;25.85;100875.41;4970834;28;1149;-31
2022/10/23 05:26:37;;;;;;;;;;;;;;;26.49;26.26;100879.13;4979463;28;1907;-30
2022/10/23 05:29:02;;;;;;;;;;;;;;;26.35;26.54;100878.03;4959372;28;1312;-30
2022/10/23 05:31:27;;;;;;;;;;;;;;;26.34;26.76;100876.34;4974962;28;1137;-30
2022/10/23 05:33:53;;;;;;;;;;;;;;;26.20;27.20;100877.88;4961028;28;1134;-31
2022/10/23 05:36:18;;;;;;;;;;;;;;;26.29;27.53;100876.81;4982168;28;1110;-30
2022/10/23 05:38:44;;;;;;;;;;;;;;;26.19;27.75;100891.53;4958653;28;1099;-30
2022/10/23 05:41:09;;;;;;;;;;;;;;;26.08;28.04;100893.59;4961167;28;2504;-31
2022/10/23 05:43:35;;;;;;;;;;;;;;;26.20;27.87;100899.47;4960798;28;1280;-30
2022/10/23 05:46:02;;;;;;;;;;;;;;;26.07;27.86;100894.59;4960686;28;1898;-30
2022/10/23 05:48:28;;;;;;;;;;;;;;;26.13;27.67;100898.44;4963553;28;1197;-30
2022/10/23 05:50:53;;;;;;;;;;;;;;;26.14;26.79;100900.16;4958519;28;1166;-32
2022/10/23 05:53:18;;;;;;;;;;;;;;;27.27;26.26;100904.53;4963349;28;1284;-31
2022/10/23 05:55:43;;;;;;;;;;;;;;;26.50;25.83;100905.13;4977771;28;1201;-32
2022/10/23 05:58:09;;;;;;;;;;;;;;;26.16;26.33;100906.19;4977805;28;1173;-32
2022/10/23 06:00:34;;;;;;;;;;;;;;;27.63;25.32;100911.16;4979676;28;926;-32
2022/10/23 06:02:59;;;;;;;;;;;;;;;26.79;25.34;100908.19;4977350;28;1129;-31
2022/10/23 06:05:25;;;;;;;;;;;;;;;26.81;26.10;100910.72;4969017;28;1945;-32
2022/10/23 06:07:50;;;;;;;;;;;;;;;27.68;23.80;100910.59;4972533;28;1170;-31
2022/10/23 06:10:15;;;;;;;;;;;;;;;26.83;24.83;100911.34;4977521;28;2543;-32
2022/10/23 06:12:40;;;;;;;;;;;;;;;26.98;25.36;100919.53;4982524;28;1117;-32
2022/10/23 06:15:06;;;;;;;;;;;;;;;27.56;24.48;100919.16;4977551;28;1180;-37
2022/10/23 06:17:31;;;;;;;;;;;;;;;26.97;25.13;100921.41;4977677;28;1102;-31
2022/10/23 06:20:01;;;;;;;;;;;;;;;27.34;25.01;100918.16;4977161;28;1204;-31
2022/10/23 06:22:26;;;;;;;;;;;;;;;27.26;25.14;100917.19;4976661;28;1187;-29
2022/10/23 06:24:52;;;;;;;;;;;;;;;26.81;25.87;100919.63;4980792;28;1906;-30
2022/10/23 06:27:17;;;;;;;;;;;;;;;27.88;24.86;100919.06;4977513;28;1118;-30
2022/10/23 06:29:42;;;;;;;;;;;;;;;27.21;25.65;100916.06;4977426;28;1153;-30
2022/10/23 06:32:08;;;;;;;;;;;;;;;26.84;26.97;100921.97;4976968;28;1110;-30
2022/10/23 06:34:33;;;;;;;;;;;;;;;28.01;25.35;100904.06;4976813;28;1062;-30
2022/10/23 06:36:58;;;;;;;;;;;;;;;27.00;27.36;100894.06;4979238;28;877;-30
2022/10/23 06:39:23;;;;;;;;;;;;;;;26.80;27.39;100909.84;4977133;28;2397;-30
2022/10/23 06:41:49;;;;;;;;;;;;;;;27.61;26.24;100902.41;4977184;28;1216;-31
2022/10/23 06:44:14;;;;;;;;;;;;;;;26.89;27.71;100911.47;4977233;28;1149;-31
2022/10/23 06:46:39;;;;;;;;;;;;;;;27.08;27.73;100913.94;4977280;28;1898;-30
2022/10/23 06:49:05;;;;;;;;;;;;;;;27.33;27.35;100908.34;4977454;28;860;-30
2022/10/23 06:51:30;;;;;;;;;;;;;;;26.76;28.22;100920.16;4976867;28;1102;-30
2022/10/23 06:53:56;;;;;;;;;;;;;;;27.66;27.25;100927.00;4976893;28;1153;-31
2022/10/23 06:56:21;;;;;;;;;;;;;;;27.21;28.29;100918.75;4977148;28;1185;-30
2022/10/23 06:58:47;;;;;;;;;;;;;;;26.84;28.98;100926.53;4979359;28;1169;-30
2022/10/23 07:01:12;;;;;;;;;;;;;;;27.75;27.69;100920.53;4992827;28;1161;-29
2022/10/23 07:03:37;;;;;;;;;;;;;;;27.10;28.48;100920.00;4981896;28;1173;-29
2022/10/23 07:06:03;;;;;;;;;;;;;;;26.85;28.94;100925.50;4981148;28;1891;-29
2022/10/23 07:08:29;;;;;;;;;;;;;;;27.80;27.75;100936.22;4980801;28;1169;-30
2022/10/23 07:10:54;;;;;;;;;;;;;;;26.93;28.94;100938.97;4980600;28;2721;-30
2022/10/23 07:13:21;;;;;;;;;;;;;;;27.14;28.72;100937.53;4982103;28;975;-30
2022/10/23 07:15:46;;;;;;;;;;;;;;;27.67;28.07;100941.34;4980445;28;1188;-30
2022/10/23 07:18:13;;;;;;;;;;;;;;;26.92;29.13;100928.34;4980743;28;1161;-30
2022/10/23 07:20:39;;;;;;;;;;;;;;;27.36;29.25;100929.63;4965595;28;1192;-32
2022/10/23 07:23:04;;;;;;;;;;;;;;;27.26;28.80;100952.28;4961339;28;1387;-30
2022/10/23 07:25:29;;;;;;;;;;;;;;;26.97;29.71;100945.72;4961169;28;1902;-32
2022/10/23 07:27:55;;;;;;;;;;;;;;;27.88;28.73;100956.91;4966338;28;1289;-30
2022/10/23 07:30:20;;;;;;;;;;;;;;;27.24;29.21;100972.41;4973971;28;1145;-30
2022/10/23 07:32:46;;;;;;;;;;;;;;;27.08;29.78;100960.69;4980412;28;1110;-30
2022/10/23 07:35:11;;;;;;;;;;;;;;;27.94;28.98;100958.91;4980285;28;1129;-30
2022/10/23 07:37:36;;;;;;;;;;;;;;;27.21;29.21;100960.09;4989810;28;1082;-31
2022/10/23 07:40:02;;;;;;;;;;;;;;;27.03;29.76;100968.47;4980312;28;2746;-31
2022/10/23 07:42:28;;;;;;;;;;;;;;;27.81;29.09;100974.91;4980239;28;1192;-31
2022/10/23 07:44:53;;;;;;;;;;;;;;;27.20;29.13;100969.22;4980378;28;1894;-31
2022/10/23 07:47:18;;;;;;;;;;;;;;;27.03;29.30;100968.47;4965880;28;1209;-30
2022/10/23 07:49:44;;;;;;;;;;;;;;;27.44;29.39;100955.72;4980364;28;852;-30
2022/10/23 07:52:09;;;;;;;;;;;;;;;27.18;28.74;100965.00;4980328;28;1160;-30
2022/10/23 07:54:34;;;;;;;;;;;;;;;26.92;29.74;100958.91;4979977;28;1240;-30
2022/10/23 07:57:00;;;;;;;;;;;;;;;27.09;29.73;100958.84;4979835;28;1102;-30
2022/10/23 07:59:25;;;;;;;;;;;;;;;27.41;28.97;100956.91;4979630;28;1023;-30
2022/10/23 08:01:51;;;;;;;;;;;;;;;26.97;29.67;100952.97;4985139;28;951;-30
2022/10/23 08:04:18;;;;;;;;;;;;;;;27.43;29.83;100959.44;4978764;28;1114;-30
2022/10/23 08:06:43;;;;;;;;;;;;;;;27.32;29.09;100972.38;4960085;28;1906;-30
2022/10/23 08:09:08;;;;;;;;;;;;;;;26.91;30.13;100984.19;4972901;28;2343;-30
2022/10/23 08:11:34;;;;;;;;;;;;;;;27.24;30.25;100981.34;4979715;28;1137;-30
2022/10/23 08:14:01;;;;;;;;;;;;;;;27.82;28.66;100980.13;4991408;28;1220;-30
2022/10/23 08:16:26;;;;;;;;;;;;;;;27.05;29.94;100976.38;4966543;28;1226;-30
2022/10/23 08:18:52;;;;;;;;;;;;;;;27.26;30.32;100978.47;4943027;28;2774;-30
2022/10/23 08:21:17;;;;;;;;;;;;;;;28.03;29.27;100986.69;4966003;28;1244;-30
2022/10/23 08:23:43;;;;;;;;;;;;;;;27.19;29.69;100991.00;4979430;28;1199;-30
2022/10/23 08:26:08;;;;;;;;;;;;;;;27.23;30.17;100987.78;4990248;28;1927;-31
2022/10/23 08:28:33;;;;;;;;;;;;;;;28.18;29.02;100985.84;4979764;28;1161;-30
2022/10/23 08:31:04;;;;;;;;;;;;;;;27.18;29.71;100990.16;4980729;28;1224;-30
2022/10/23 08:33:30;;;;;;;;;;;;;;;26.97;30.41;100988.91;4974379;28;1105;-30
2022/10/23 08:35:55;;;;;;;;;;;;;;;27.70;29.84;100998.63;4979749;28;1173;-30
2022/10/23 08:38:20;;;;;;;;;;;;;;;27.36;29.66;101002.56;4971009;28;1129;-29
2022/10/23 08:40:46;;;;;;;;;;;;;;;26.99;30.14;100994.94;4948384;28;2324;-31
2022/10/23 08:43:11;;;;;;;;;;;;;;;27.75;30.05;101000.78;4958786;28;1249;-30
2022/10/23 08:45:48;;;;;;;;;;;;;;;27.96;29.06;100999.28;4962835;28;1903;-30
2022/10/23 08:48:31;;;;;;;;;;;;;;;27.18;30.07;101003.66;4971697;28;1142;-30
2022/10/23 08:50:58;;;;;;;;;;;;;;;27.34;30.12;101001.91;4971432;28;986;-30
2022/10/23 08:53:25;;;;;;;;;;;;;;;28.12;29.83;101003.69;4959525;28;1312;-32
2022/10/23 08:55:54;;;;;;;;;;;;;;;27.32;29.79;100991.28;4958572;28;1257;-30
2022/10/23 08:58:30;;;;;;;;;;;;;;;27.26;30.25;100995.50;4957846;28;1197;-29
2022/10/23 09:00:56;;;;;;;;;;;;;;;27.68;29.65;100994.38;4976991;28;1237;-30
2022/10/23 09:03:21;;;;;;;;;;;;;;;27.57;29.91;100998.34;4943627;28;1316;-31
2022/10/23 09:06:07;;;;;;;;;;;;;;;27.19;30.42;100999.97;4947172;28;1899;-31
2022/10/23 09:08:37;;;;;;;;;;;;;;;27.97;29.71;101014.47;4947332;28;1273;-31
2022/10/23 09:11:03;;;;;;;;;;;;;;;28.06;29.41;101005.25;4956328;28;1861;-31
2022/10/23 09:13:29;;;;;;;;;;;;;;;27.32;30.05;101018.28;4961559;28;1292;-29
2022/10/23 09:16:03;;;;;;;;;;;;;;;27.38;30.59;101012.16;4979236;28;1125;-31
2022/10/23 09:18:29;;;;;;;;;;;;;;;27.64;30.30;101023.66;4961267;28;1278;-30
2022/10/23 09:20:54;;;;;;;;;;;;;;;27.84;29.58;101015.09;4960237;28;1222;-29
2022/10/23 09:23:20;;;;;;;;;;;;;;;27.36;30.73;101025.00;4978128;28;1273;-30
2022/10/23 09:25:46;;;;;;;;;;;;;;;27.19;30.69;101026.97;4980365;28;1899;-30
2022/10/23 09:28:21;;;;;;;;;;;;;;;27.35;30.66;101034.13;4977830;28;1237;-30
2022/10/23 09:30:46;;;;;;;;;;;;;;;28.23;29.77;101035.69;4978230;28;1222;-30
2022/10/23 09:33:14;;;;;;;;;;;;;;;27.51;30.14;101032.31;4960853;28;1309;-30
2022/10/23 09:35:50;;;;;;;;;;;;;;;27.42;30.51;101026.16;4977962;28;1451;-29
2022/10/23 09:38:24;;;;;;;;;;;;;;;27.91;30.14;101023.31;4979967;28;872;-30
2022/10/23 09:40:49;;;;;;;;;;;;;;;27.97;29.96;101019.88;4961011;28;2353;-29
2022/10/23 09:43:15;;;;;;;;;;;;;;;27.69;29.87;101023.13;4978341;28;1102;-30
2022/10/23 09:45:41;;;;;;;;;;;;;;;27.30;30.49;101020.31;4975209;28;1899;-30
2022/10/23 09:48:10;;;;;;;;;;;;;;;27.24;30.77;101019.16;4959335;28;1178;-30
2022/10/23 09:50:36;;;;;;;;;;;;;;;27.92;30.31;101017.72;4971294;28;1209;-29
2022/10/23 09:53:01;;;;;;;;;;;;;;;28.31;29.91;101017.69;4960527;28;1257;-29
2022/10/23 09:55:26;;;;;;;;;;;;;;;27.46;30.61;101032.88;4977413;28;1276;-30
2022/10/23 09:57:52;;;;;;;;;;;;;;;27.35;30.65;101036.81;4977444;28;1217;-31
2022/10/23 10:00:18;;;;;;;;;;;;;;;27.30;30.90;101038.38;4977724;28;1194;-30
2022/10/23 10:03:00;;;;;;;;;;;;;;;27.26;30.99;101032.47;4979822;28;1209;-30
2022/10/23 10:05:25;;;;;;;;;;;;;;;27.33;30.53;101038.88;4963195;28;1914;-29
2022/10/23 10:08:09;;;;;;;;;;;;;;;28.08;30.02;101026.69;4963365;28;1324;-29
2022/10/23 10:10:38;;;;;;;;;;;;;;;27.49;30.62;101032.50;4971777;28;2609;-30
2022/10/23 10:13:26;;;;;;;;;;;;;;;27.40;30.92;101030.88;4960491;28;1118;-31
2022/10/23 10:15:53;;;;;;;;;;;;;;;27.23;30.81;101016.63;4973126;28;1158;-30
2022/10/23 10:18:37;;;;;;;;;;;;;;;27.28;30.93;101018.81;4978085;28;1130;-28
2022/10/23 10:21:08;;;;;;;;;;;;;;;27.21;30.66;101011.41;4977688;28;1118;-31
2022/10/23 10:23:47;;;;;;;;;;;;;;;28.02;30.39;101024.72;4970356;28;1359;-30
2022/10/23 10:26:21;;;;;;;;;;;;;;;27.37;30.59;101031.25;4953531;28;1915;-30
2022/10/23 10:29:29;;;;;;;;;;;;;;;27.29;30.96;101032.16;4977655;28;1086;-30
2022/10/23 10:32:13;;;;;;;;;;;;;;;27.32;30.74;101039.88;4936305;29;1122;-30
2022/10/23 10:34:38;;;;;;;;;;;;;;;27.30;30.97;101033.81;4936672;29;1162;-30
2022/10/23 10:37:24;;;;;;;;;;;;;;;27.32;30.65;101031.78;4961785;28;1169;-30
2022/10/23 10:39:55;;;;;;;;;;;;;;;27.33;30.86;101035.31;4975317;28;2433;-30
2022/10/23 10:42:28;;;;;;;;;;;;;;;27.35;30.93;101031.44;4977463;28;1145;-29
2022/10/23 10:44:54;;;;;;;;;;;;;;;27.42;30.59;101030.72;4960334;28;1131;-30
2022/10/23 10:47:21;;;;;;;;;;;;;;;27.95;29.93;101028.16;4977195;28;1902;-30
2022/10/23 10:49:46;;;;;;;;;;;;;;;27.46;30.74;101026.66;4979473;28;1141;-30
2022/10/23 10:52:14;;;;;;;;;;;;;;;27.33;30.89;101025.34;4981490;28;1106;-29
2022/10/23 10:54:47;;;;;;;;;;;;;;;27.28;30.98;101027.75;4968876;28;1304;-29
2022/10/23 10:57:19;;;;;;;;;;;;;;;27.29;31.11;101023.19;4940716;29;1217;-29
2022/10/23 10:59:44;;;;;;;;;;;;;;;27.28;31.39;101027.75;4957896;28;1309;-30
2022/10/23 11:02:22;;;;;;;;;;;;;;;27.29;31.31;101026.75;4958733;28;1158;-30
2022/10/23 11:04:56;;;;;;;;;;;;;;;27.25;31.27;101031.66;4977265;28;1137;-30
2022/10/23 11:07:23;;;;;;;;;;;;;;;27.28;31.20;101035.84;4959867;28;1903;-30
2022/10/23 11:09:48;;;;;;;;;;;;;;;27.29;30.85;101021.34;4959917;28;2249;-29
2022/10/23 11:12:17;;;;;;;;;;;;;;;27.29;31.16;101029.44;4959740;28;1134;-29
2022/10/23 11:14:42;;;;;;;;;;;;;;;27.32;30.91;101017.44;4977243;28;882;-29
2022/10/23 11:17:09;;;;;;;;;;;;;;;27.30;31.27;101012.22;4960192;28;1138;-29
2022/10/23 11:19:48;;;;;;;;;;;;;;;27.32;30.91;101023.69;4977141;28;1236;-30
2022/10/23 11:22:20;;;;;;;;;;;;;;;27.38;31.13;101022.13;4976695;28;1273;-31
2022/10/23 11:24:49;;;;;;;;;;;;;;;27.37;30.83;101020.44;4959413;28;1166;-31
2022/10/23 11:27:15;;;;;;;;;;;;;;;27.54;30.63;101025.75;4971408;28;1915;-30
2022/10/23 11:30:12;;;;;;;;;;;;;;;27.94;29.87;101031.06;4977690;28;1224;-31
2022/10/23 11:32:47;;;;;;;;;;;;;;;27.41;30.71;101024.44;4932143;28;1416;-30
2022/10/23 11:35:22;;;;;;;;;;;;;;;27.29;30.92;101034.00;4960181;28;1296;-30
2022/10/23 11:37:59;;;;;;;;;;;;;;;27.28;30.88;101035.84;4948553;28;1304;-30
2022/10/23 11:40:25;;;;;;;;;;;;;;;27.28;31.11;101035.84;4955808;28;1838;-30
2022/10/23 11:42:50;;;;;;;;;;;;;;;27.29;31.25;101039.41;4976734;28;1197;-30
2022/10/23 11:45:28;;;;;;;;;;;;;;;27.30;30.98;101028.41;4962419;28;1934;-30
2022/10/23 11:48:12;;;;;;;;;;;;;;;27.30;30.85;101032.97;4968629;28;1153;-30
2022/10/23 11:50:43;;;;;;;;;;;;;;;27.30;31.09;101032.97;4983484;28;1122;-30
2022/10/23 11:53:24;;;;;;;;;;;;;;;27.36;31.06;101025.00;4980429;28;1160;-31
2022/10/23 11:56:02;;;;;;;;;;;;;;;27.32;30.85;101017.44;4980603;28;1122;-30
2022/10/23 11:58:30;;;;;;;;;;;;;;;27.33;31.09;101011.84;4979973;28;1098;-30
2022/10/23 12:00:58;;;;;;;;;;;;;;;27.34;31.08;101028.91;4962750;28;1362;-30
2022/10/23 12:03:28;;;;;;;;;;;;;;;27.31;30.88;101035.50;4981759;28;949;-30
2022/10/23 12:05:58;;;;;;;;;;;;;;;27.28;31.11;101045.84;4979710;28;1968;-30
2022/10/23 12:08:24;;;;;;;;;;;;;;;27.90;30.37;101041.38;4963058;28;1166;-31
2022/10/23 12:10:51;;;;;;;;;;;;;;;27.39;30.76;101043.53;4962561;28;2686;-30
2022/10/23 12:13:29;;;;;;;;;;;;;;;27.28;30.91;101056.63;4980037;28;1220;-30
2022/10/23 12:15:54;;;;;;;;;;;;;;;27.23;31.18;101049.03;4990234;28;1142;-30
2022/10/23 12:18:19;;;;;;;;;;;;;;;27.24;31.17;101054.25;4980080;28;1137;-31
2022/10/23 12:20:51;;;;;;;;;;;;;;;27.32;31.02;101039.03;4979963;28;1192;-32
2022/10/23 12:23:31;;;;;;;;;;;;;;;27.66;31.03;101051.31;4979318;28;1074;-32
2022/10/23 12:25:57;;;;;;;;;;;;;;;27.67;30.15;101046.75;4980012;28;1910;-30
2022/10/23 12:28:25;;;;;;;;;;;;;;;27.35;30.81;101054.88;4988412;28;931;-31
2022/10/23 12:31:01;;;;;;;;;;;;;;;27.29;31.03;101040.25;4979552;28;1189;-31
2022/10/23 12:33:32;;;;;;;;;;;;;;;27.29;31.02;101050.19;4962598;28;1454;-32
2022/10/23 12:36:04;;;;;;;;;;;;;;;27.27;31.14;101044.97;4962390;28;1182;-31
2022/10/23 12:38:29;;;;;;;;;;;;;;;27.26;30.58;101046.81;4967679;28;1039;-32
2022/10/23 12:41:12;;;;;;;;;;;;;;;27.29;30.89;101048.34;4978517;28;2677;-31
2022/10/23 12:43:37;;;;;;;;;;;;;;;27.36;31.01;101053.88;4944065;28;1320;-31
2022/10/23 12:46:03;;;;;;;;;;;;;;;27.75;30.48;101046.72;4961186;28;1894;-32
2022/10/23 12:48:31;;;;;;;;;;;;;;;27.41;30.71;101051.47;4967908;28;1126;-31
2022/10/23 12:50:56;;;;;;;;;;;;;;;27.54;30.53;101060.88;4965780;28;1126;-30